Time;durP1;ratioP1;P1;durP2;ratioP2;P2;SDS_P1;SDS_P2;PMS_P1;PMS_P2;Temp;Humidity;BMP_temperature;BMP_pressure;BME280_temperature;BME280_humidity;BME280_pressure;Samples;Min_cycle;Max_cycle;Signal;HPM_P1;HPM_P2
2022/03/06 00:01:28;;;;;;;9.77;6.40;;;3.20;70.00;;;;;;5110263;27;20515;-74
2022/03/06 00:03:54;;;;;;;7.87;5.93;;;3.20;70.70;;;;;;5078754;28;20186;-73
2022/03/06 00:06:20;;;;;;;8.83;5.97;;;3.10;71.00;;;;;;5080977;28;20178;-73
2022/03/06 00:08:48;;;;;;;8.17;6.10;;;3.10;71.90;;;;;;5112427;27;20176;-73
2022/03/06 00:11:14;;;;;;;9.83;6.33;;;3.00;71.90;;;;;;5117048;27;20176;-72
2022/03/06 00:13:40;;;;;;;9.33;6.10;;;3.00;72.40;;;;;;5078622;28;20194;-73
2022/03/06 00:16:08;;;;;;;10.83;6.37;;;2.90;72.30;;;;;;5073542;28;20177;-72
2022/03/06 00:18:37;;;;;;;11.07;6.77;;;2.90;72.60;;;;;;5108418;27;20197;-71
2022/03/06 00:21:04;;;;;;;10.67;6.50;;;2.90;73.70;;;;;;5078720;28;20199;-72
2022/03/06 00:23:29;;;;;;;9.03;5.67;;;2.80;73.00;;;;;;5109644;27;20279;-72
2022/03/06 00:25:55;;;;;;;9.90;6.60;;;2.80;72.90;;;;;;5078085;28;20259;-69
2022/03/06 00:28:21;;;;;;;10.77;6.80;;;2.70;73.90;;;;;;5080138;28;20526;-71
2022/03/06 00:30:48;;;;;;;9.33;6.10;;;2.70;74.40;;;;;;5083119;28;20190;-65
2022/03/06 00:33:16;;;;;;;8.40;5.20;;;2.70;74.10;;;;;;5082768;28;20172;-72
2022/03/06 00:35:44;;;;;;;8.33;5.63;;;2.70;74.50;;;;;;5108995;28;20195;-71
2022/03/06 00:38:10;;;;;;;9.13;6.17;;;2.60;74.70;;;;;;5077758;28;20215;-72
2022/03/06 00:40:36;;;;;;;9.17;5.50;;;2.60;74.50;;;;;;5072796;28;20201;-72
2022/03/06 00:43:02;;;;;;;8.90;5.90;;;2.60;74.30;;;;;;5109948;27;20530;-70
2022/03/06 00:45:28;;;;;;;8.57;5.80;;;2.60;74.80;;;;;;5069676;28;20187;-73
2022/03/06 00:47:56;;;;;;;10.63;6.90;;;2.50;75.20;;;;;;5076871;28;20176;-72
2022/03/06 00:50:22;;;;;;;10.97;6.27;;;2.50;75.50;;;;;;5077251;28;20176;-73
2022/03/06 00:52:47;;;;;;;9.00;6.40;;;2.50;76.00;;;;;;5090592;28;20196;-73
2022/03/06 00:55:18;;;;;;;8.50;6.13;;;2.40;76.20;;;;;;5080702;28;20171;-72
2022/03/06 00:57:43;;;;;;;10.10;6.73;;;2.40;76.80;;;;;;5107288;28;20165;-72
2022/03/06 01:00:10;;;;;;;8.90;6.07;;;2.30;77.30;;;;;;5113729;27;20192;-70
2022/03/06 01:02:37;;;;;;;10.27;6.50;;;2.30;77.00;;;;;;5084160;28;20279;-67
2022/03/06 01:05:08;;;;;;;10.20;6.70;;;2.30;77.50;;;;;;5107891;28;20182;-70
2022/03/06 01:07:34;;;;;;;8.73;6.70;;;2.30;78.20;;;;;;5110481;28;20299;-72
2022/03/06 01:09:59;;;;;;;10.23;6.23;;;2.20;78.30;;;;;;5111954;27;20207;-73
2022/03/06 01:12:28;;;;;;;9.50;6.10;;;2.20;79.00;;;;;;5076759;28;20263;-72
2022/03/06 01:14:55;;;;;;;9.27;6.40;;;2.20;79.40;;;;;;5086370;28;20201;-72
2022/03/06 01:17:23;;;;;;;10.30;6.47;;;2.10;79.60;;;;;;5101616;28;20176;-73
2022/03/06 01:19:49;;;;;;;10.93;6.60;;;2.10;80.10;;;;;;5110748;27;20274;-73
2022/03/06 01:22:15;;;;;;;9.60;6.30;;;2.10;80.50;;;;;;5105999;27;20252;-73
2022/03/06 01:24:41;;;;;;;9.53;6.60;;;2.10;81.30;;;;;;5079764;28;20176;-70
2022/03/06 01:27:06;;;;;;;11.57;6.77;;;2.00;82.50;;;;;;5077923;28;20216;-73
2022/03/06 01:29:32;;;;;;;8.43;6.17;;;2.00;82.60;;;;;;5092628;28;20171;-73
2022/03/06 01:32:02;;;;;;;10.73;6.80;;;2.00;82.90;;;;;;5111944;27;20225;-73
2022/03/06 01:34:30;;;;;;;10.77;6.77;;;2.00;84.20;;;;;;5104683;28;20184;-73
2022/03/06 01:36:56;;;;;;;10.10;6.50;;;1.90;84.20;;;;;;5077280;28;20183;-72
2022/03/06 01:39:21;;;;;;;8.13;5.83;;;1.90;83.90;;;;;;5080856;28;20191;-73
2022/03/06 01:41:49;;;;;;;9.03;6.30;;;1.90;83.50;;;;;;5096562;28;20211;-72
2022/03/06 01:44:15;;;;;;;8.77;6.00;;;1.90;84.30;;;;;;5078978;28;20176;-73
2022/03/06 01:46:41;;;;;;;8.60;6.40;;;1.90;84.80;;;;;;5111999;27;20184;-73
2022/03/06 01:49:06;;;;;;;10.23;6.30;;;1.90;84.10;;;;;;5085576;28;20204;-72
2022/03/06 01:51:32;;;;;;;8.57;6.30;;;1.90;84.50;;;;;;5070880;28;20214;-68
2022/03/06 01:54:00;;;;;;;8.73;5.67;;;1.90;85.30;;;;;;5089012;28;20206;-73
2022/03/06 01:56:25;;;;;;;9.10;5.77;;;1.90;85.20;;;;;;5094205;28;20209;-70
2022/03/06 01:58:55;;;;;;;8.97;6.07;;;1.80;85.80;;;;;;5083109;28;20274;-72
2022/03/06 02:01:21;;;;;;;8.50;6.03;;;1.80;86.50;;;;;;5083487;28;20211;-72
2022/03/06 02:03:46;;;;;;;9.33;5.57;;;1.80;85.90;;;;;;5126579;27;20281;-73
2022/03/06 02:06:12;;;;;;;8.40;5.67;;;1.80;85.70;;;;;;5088887;28;20182;-71
2022/03/06 02:08:40;;;;;;;9.20;5.50;;;1.80;86.60;;;;;;5113951;27;20191;-72
2022/03/06 02:11:09;;;;;;;8.50;5.40;;;1.80;86.00;;;;;;5081462;28;20238;-73
2022/03/06 02:13:37;;;;;;;7.07;5.00;;;1.70;86.50;;;;;;5086297;28;20183;-73
2022/03/06 02:16:03;;;;;;;9.03;5.87;;;1.70;85.90;;;;;;5083526;28;20267;-69
2022/03/06 02:18:33;;;;;;;8.67;5.83;;;1.80;87.10;;;;;;5085499;28;20279;-72
2022/03/06 02:21:08;;;;;;;8.63;5.70;;;1.70;87.80;;;;;;5093021;28;20207;-72
2022/03/06 02:23:34;;;;;;;8.37;5.50;;;1.70;87.50;;;;;;5116397;27;20184;-72
2022/03/06 02:26:02;;;;;;;7.23;5.37;;;1.70;86.60;;;;;;5084916;28;20232;-72
2022/03/06 02:28:28;;;;;;;7.87;5.23;;;1.70;86.60;;;;;;5070052;28;20164;-73
2022/03/06 02:30:55;;;;;;;7.97;5.20;;;1.60;86.50;;;;;;5088586;28;20275;-69
2022/03/06 02:33:23;;;;;;;8.73;5.43;;;1.60;86.90;;;;;;5088474;28;20187;-69
2022/03/06 02:35:49;;;;;;;7.13;5.23;;;1.60;86.90;;;;;;5119212;28;20301;-73
2022/03/06 02:38:15;;;;;;;7.57;4.90;;;1.60;86.90;;;;;;5120150;27;20231;-70
2022/03/06 02:40:43;;;;;;;6.93;5.10;;;1.60;86.90;;;;;;5084780;28;20196;-72
2022/03/06 02:43:10;;;;;;;7.90;5.07;;;1.60;87.20;;;;;;5116942;28;20179;-72
2022/03/06 02:45:38;;;;;;;7.70;5.07;;;1.60;87.60;;;;;;5090074;28;20286;-73
2022/03/06 02:48:04;;;;;;;8.20;5.33;;;1.50;87.50;;;;;;5088147;28;20180;-74
2022/03/06 02:50:33;;;;;;;7.17;4.87;;;1.50;87.70;;;;;;5090676;28;20175;-73
2022/03/06 02:53:00;;;;;;;8.73;5.30;;;1.50;88.30;;;;;;5103624;27;20203;-70
2022/03/06 02:55:27;;;;;;;7.40;5.00;;;1.50;88.30;;;;;;5085106;28;20232;-73
2022/03/06 02:57:53;;;;;;;7.20;4.57;;;1.50;88.30;;;;;;5111746;27;20198;-73
2022/03/06 03:00:20;;;;;;;7.83;5.40;;;1.50;88.50;;;;;;5080448;28;20210;-73
2022/03/06 03:02:50;;;;;;;7.00;4.90;;;1.50;88.70;;;;;;5112751;27;20176;-72
2022/03/06 03:05:18;;;;;;;7.67;4.90;;;1.50;89.10;;;;;;5088579;28;20179;-73
2022/03/06 03:07:49;;;;;;;7.57;4.90;;;1.50;89.30;;;;;;5087433;28;20192;-70
2022/03/06 03:10:18;;;;;;;7.87;5.03;;;1.50;89.90;;;;;;5083939;28;20175;-73
2022/03/06 03:12:44;;;;;;;7.37;4.80;;;1.50;89.80;;;;;;5077623;28;20176;-71
2022/03/06 03:15:11;;;;;;;8.17;4.90;;;1.50;89.50;;;;;;5077063;28;20187;-73
2022/03/06 03:17:37;;;;;;;6.90;4.70;;;1.50;89.90;;;;;;5081354;28;20263;-70
2022/03/06 03:20:06;;;;;;;7.17;5.17;;;1.50;90.00;;;;;;5092837;28;20172;-71
2022/03/06 03:22:32;;;;;;;6.67;4.40;;;1.50;89.80;;;;;;5079427;28;20240;-72
2022/03/06 03:24:58;;;;;;;7.73;5.10;;;1.50;89.80;;;;;;5081799;28;20218;-73
2022/03/06 03:27:26;;;;;;;6.83;4.53;;;1.50;89.80;;;;;;5080048;28;20242;-70
2022/03/06 03:29:53;;;;;;;8.50;5.13;;;1.50;90.10;;;;;;5110604;28;20176;-72
2022/03/06 03:32:19;;;;;;;6.53;4.57;;;1.50;89.90;;;;;;5114005;27;20179;-72
2022/03/06 03:34:45;;;;;;;8.40;5.17;;;1.50;90.10;;;;;;5084046;28;20195;-73
2022/03/06 03:37:10;;;;;;;6.90;4.50;;;1.50;90.20;;;;;;5113591;28;20238;-73
2022/03/06 03:39:36;;;;;;;7.73;5.10;;;1.50;90.40;;;;;;5079500;28;20171;-73
2022/03/06 03:42:04;;;;;;;6.43;4.57;;;1.60;90.50;;;;;;5081798;28;20210;-73
2022/03/06 03:44:30;;;;;;;7.00;4.97;;;1.60;90.70;;;;;;5100417;28;20172;-70
2022/03/06 03:46:58;;;;;;;8.27;4.60;;;1.60;90.80;;;;;;5076588;28;20230;-73
2022/03/06 03:49:27;;;;;;;6.83;4.53;;;1.60;90.90;;;;;;5116480;27;20195;-68
2022/03/06 03:51:52;;;;;;;6.67;4.33;;;1.70;91.20;;;;;;5096372;28;20182;-72
2022/03/06 03:54:21;;;;;;;8.03;4.80;;;1.70;91.00;;;;;;5114309;27;20263;-73
2022/03/06 03:56:49;;;;;;;8.40;5.20;;;1.70;91.20;;;;;;5106307;28;20196;-74
2022/03/06 03:59:14;;;;;;;7.47;4.90;;;1.70;91.10;;;;;;5092979;28;20177;-72
2022/03/06 04:01:40;;;;;;;7.37;4.80;;;1.70;91.10;;;;;;5110299;27;20212;-64
2022/03/06 04:04:08;;;;;;;7.27;4.83;;;1.80;91.30;;;;;;5113035;28;20212;-73
2022/03/06 04:06:38;;;;;;;6.23;4.80;;;1.80;91.40;;;;;;5084210;28;20168;-73
2022/03/06 04:09:06;;;;;;;6.03;4.53;;;1.80;91.30;;;;;;5113467;27;20176;-72
2022/03/06 04:11:33;;;;;;;6.27;4.70;;;1.80;91.50;;;;;;5115371;27;20204;-73
2022/03/06 04:14:02;;;;;;;6.87;4.57;;;1.80;91.20;;;;;;5103019;27;20182;-71
2022/03/06 04:16:27;;;;;;;6.97;4.83;;;1.80;91.60;;;;;;5077784;28;20180;-73
2022/03/06 04:18:53;;;;;;;6.50;4.40;;;1.80;91.40;;;;;;5102761;28;20222;-73
2022/03/06 04:21:19;;;;;;;7.20;4.53;;;1.80;91.40;;;;;;5102270;28;20208;-73
2022/03/06 04:23:47;;;;;;;6.33;4.77;;;1.80;91.40;;;;;;5076039;28;20176;-72
2022/03/06 04:26:12;;;;;;;6.43;4.60;;;1.80;91.40;;;;;;5078074;28;20204;-72
2022/03/06 04:28:38;;;;;;;6.73;4.50;;;1.80;91.50;;;;;;5111134;27;20366;-72
2022/03/06 04:31:06;;;;;;;6.57;4.57;;;1.80;91.60;;;;;;5122824;27;20203;-73
2022/03/06 04:33:31;;;;;;;8.00;5.07;;;1.80;91.70;;;;;;5079414;28;20221;-73
2022/03/06 04:35:59;;;;;;;7.43;4.80;;;1.80;92.00;;;;;;5087615;28;20205;-70
2022/03/06 04:38:25;;;;;;;6.43;4.50;;;1.80;92.20;;;;;;5079749;28;20202;-73
2022/03/06 04:40:50;;;;;;;7.07;4.40;;;1.80;92.10;;;;;;5121211;27;20195;-70
2022/03/06 04:43:16;;;;;;;7.27;5.20;;;1.80;92.10;;;;;;5077303;28;20208;-73
2022/03/06 04:45:44;;;;;;;8.00;5.70;;;1.90;92.60;;;;;;5080619;28;20228;-66
2022/03/06 04:48:12;;;;;;;6.30;4.37;;;1.90;92.30;;;;;;5074512;28;20196;-73
2022/03/06 04:50:37;;;;;;;7.80;5.23;;;1.90;92.10;;;;;;5078283;28;20344;-73
2022/03/06 04:53:03;;;;;;;8.03;5.23;;;1.90;92.10;;;;;;5083379;28;20593;-70
2022/03/06 04:55:28;;;;;;;8.63;5.20;;;1.90;92.30;;;;;;5082748;28;20285;-73
2022/03/06 04:57:56;;;;;;;7.73;5.13;;;1.80;92.40;;;;;;5078075;28;20180;-69
2022/03/06 05:00:22;;;;;;;7.97;5.33;;;1.80;92.30;;;;;;5078172;28;20184;-73
2022/03/06 05:02:47;;;;;;;8.77;5.27;;;1.80;92.40;;;;;;5084041;28;20206;-72
2022/03/06 05:05:13;;;;;;;9.17;5.37;;;1.90;92.60;;;;;;5116370;27;20164;-73
2022/03/06 05:07:41;;;;;;;8.50;5.53;;;1.90;92.60;;;;;;5087601;28;20278;-73
2022/03/06 05:10:12;;;;;;;7.47;5.30;;;1.90;92.80;;;;;;5082126;28;20420;-73
2022/03/06 05:12:40;;;;;;;8.57;5.43;;;1.90;93.10;;;;;;5075218;28;20187;-73
2022/03/06 05:15:08;;;;;;;7.70;5.43;;;1.90;92.80;;;;;;5081045;28;20179;-73
2022/03/06 05:17:36;;;;;;;10.23;5.67;;;1.90;93.00;;;;;;5075429;28;20180;-71
2022/03/06 05:20:03;;;;;;;8.97;5.90;;;1.90;93.40;;;;;;5076626;28;20168;-73
2022/03/06 05:22:28;;;;;;;7.47;5.13;;;1.90;93.40;;;;;;5107164;27;20200;-70
2022/03/06 05:24:55;;;;;;;8.37;5.30;;;1.90;93.60;;;;;;5121632;27;20187;-74
2022/03/06 05:27:25;;;;;;;6.27;4.83;;;1.90;93.30;;;;;;5106667;28;20172;-73
2022/03/06 05:29:51;;;;;;;8.00;5.37;;;1.90;93.40;;;;;;5074758;28;20276;-72
2022/03/06 05:32:17;;;;;;;7.77;5.27;;;1.90;93.40;;;;;;5106002;28;20191;-70
2022/03/06 05:34:45;;;;;;;7.47;5.17;;;1.90;93.40;;;;;;5097926;28;20180;-73
2022/03/06 05:37:11;;;;;;;7.70;5.27;;;1.90;93.50;;;;;;5110203;28;20215;-69
2022/03/06 05:39:36;;;;;;;7.60;5.17;;;1.90;93.50;;;;;;5085941;28;20187;-70
2022/03/06 05:42:03;;;;;;;7.97;5.53;;;1.90;93.50;;;;;;5085912;28;20199;-70
2022/03/06 05:44:31;;;;;;;8.20;5.67;;;1.90;93.50;;;;;;5109173;28;20262;-71
2022/03/06 05:46:56;;;;;;;7.47;5.70;;;1.90;93.90;;;;;;5081968;28;20184;-70
2022/03/06 05:49:22;;;;;;;10.27;5.57;;;1.90;94.00;;;;;;5083206;28;20182;-69
2022/03/06 05:51:50;;;;;;;8.43;5.30;;;1.90;94.10;;;;;;5076913;28;20185;-69
2022/03/06 05:54:18;;;;;;;7.87;5.53;;;1.90;94.40;;;;;;5077916;28;20245;-69
2022/03/06 05:56:44;;;;;;;8.40;6.00;;;1.90;94.60;;;;;;5101569;28;20180;-69
2022/03/06 05:59:09;;;;;;;7.47;5.40;;;1.90;94.50;;;;;;5099427;28;20227;-69
2022/03/06 06:01:39;;;;;;;9.53;6.30;;;1.90;94.60;;;;;;5069423;28;20211;-69
2022/03/06 06:04:07;;;;;;;6.90;5.17;;;1.90;94.90;;;;;;5083575;28;20198;-70
2022/03/06 06:06:35;;;;;;;7.17;4.80;;;1.90;94.60;;;;;;5090454;28;20203;-69
2022/03/06 06:09:01;;;;;;;8.07;5.63;;;1.90;94.50;;;;;;5081264;28;20184;-70
2022/03/06 06:11:27;;;;;;;7.93;5.20;;;1.90;94.60;;;;;;5112587;28;20180;-70
2022/03/06 06:13:55;;;;;;;7.67;4.93;;;1.90;94.70;;;;;;5079110;28;20199;-68
2022/03/06 06:16:20;;;;;;;7.93;4.80;;;1.90;94.70;;;;;;5081322;28;20180;-70
2022/03/06 06:18:46;;;;;;;7.33;5.40;;;2.00;94.70;;;;;;5111804;28;20194;-69
2022/03/06 06:21:13;;;;;;;8.53;5.57;;;2.00;94.60;;;;;;5106802;28;20212;-71
2022/03/06 06:23:39;;;;;;;8.13;5.80;;;2.00;94.80;;;;;;5093990;28;20183;-69
2022/03/06 06:26:10;;;;;;;7.47;5.30;;;2.00;94.90;;;;;;5081720;28;20203;-70
2022/03/06 06:28:36;;;;;;;7.77;5.23;;;2.00;95.10;;;;;;5071055;28;20196;-70
2022/03/06 06:31:05;;;;;;;7.70;5.03;;;2.00;95.00;;;;;;5082183;28;20283;-68
2022/03/06 06:33:32;;;;;;;8.00;5.50;;;2.00;94.90;;;;;;5075440;28;20180;-70
2022/03/06 06:36:01;;;;;;;9.40;5.93;;;2.00;94.90;;;;;;5077511;28;20184;-70
2022/03/06 06:38:29;;;;;;;8.67;5.87;;;2.00;95.40;;;;;;5081348;28;20200;-70
2022/03/06 06:40:55;;;;;;;7.90;5.53;;;2.00;95.40;;;;;;5105303;27;20215;-70
2022/03/06 06:43:21;;;;;;;8.53;5.23;;;2.10;95.40;;;;;;5097416;28;20258;-71
2022/03/06 06:45:49;;;;;;;7.80;5.43;;;2.10;95.30;;;;;;5085630;28;20176;-70
2022/03/06 06:48:17;;;;;;;8.43;6.10;;;2.10;95.50;;;;;;5080125;28;20200;-70
2022/03/06 06:50:43;;;;;;;7.43;5.23;;;2.10;95.70;;;;;;5109594;27;20180;-70
2022/03/06 06:53:09;;;;;;;6.97;5.00;;;2.10;95.70;;;;;;5085547;28;20184;-70
2022/03/06 06:55:37;;;;;;;6.83;5.00;;;2.20;95.90;;;;;;5106628;27;20235;-69
2022/03/06 06:58:03;;;;;;;8.67;5.30;;;2.20;95.70;;;;;;5108989;27;20199;-68
2022/03/06 07:00:29;;;;;;;7.30;5.57;;;2.20;96.00;;;;;;5087910;28;20179;-70
2022/03/06 07:02:57;;;;;;;9.47;6.10;;;2.20;96.00;;;;;;5118838;27;20222;-70
2022/03/06 07:05:23;;;;;;;7.57;5.40;;;2.30;96.30;;;;;;5117699;27;20256;-70
2022/03/06 07:07:48;;;;;;;7.23;5.20;;;2.30;96.20;;;;;;5078098;28;20232;-66
2022/03/06 07:10:14;;;;;;;7.70;5.90;;;2.30;96.20;;;;;;5116719;27;20200;-70
2022/03/06 07:12:42;;;;;;;8.53;5.90;;;2.40;96.10;;;;;;5113484;27;20274;-70
2022/03/06 07:15:08;;;;;;;8.73;5.77;;;2.40;96.10;;;;;;5087147;28;20210;-70
2022/03/06 07:17:36;;;;;;;8.17;5.47;;;2.40;96.40;;;;;;5122226;27;20179;-71
2022/03/06 07:20:01;;;;;;;7.50;5.57;;;2.50;96.70;;;;;;5080229;28;20198;-71
2022/03/06 07:22:29;;;;;;;6.73;4.93;;;2.50;96.40;;;;;;5112474;27;20216;-72
2022/03/06 07:24:57;;;;;;;8.13;5.70;;;2.50;96.40;;;;;;5081223;28;20180;-72
2022/03/06 07:27:25;;;;;;;8.13;5.93;;;2.60;96.70;;;;;;5078807;28;20267;-72
2022/03/06 07:29:51;;;;;;;9.87;6.60;;;2.60;96.70;;;;;;5079107;28;20257;-74
2022/03/06 07:32:16;;;;;;;9.87;6.33;;;2.70;96.90;;;;;;5123016;27;20179;-71
2022/03/06 07:34:42;;;;;;;8.40;5.90;;;2.70;97.20;;;;;;5087349;28;20235;-72
2022/03/06 07:37:10;;;;;;;9.13;6.20;;;2.80;97.00;;;;;;5084646;28;20208;-70
2022/03/06 07:39:36;;;;;;;8.03;5.97;;;2.80;97.20;;;;;;5082695;28;20188;-71
2022/03/06 07:42:02;;;;;;;9.57;7.10;;;2.90;97.50;;;;;;5078134;28;20238;-70
2022/03/06 07:44:27;;;;;;;9.00;6.33;;;2.90;97.70;;;;;;5070440;28;20470;-70
2022/03/06 07:46:55;;;;;;;9.67;6.00;;;3.00;97.50;;;;;;5111913;28;20184;-68
2022/03/06 07:49:21;;;;;;;9.07;7.00;;;3.00;97.60;;;;;;5080188;28;20245;-70
2022/03/06 07:51:47;;;;;;;8.03;5.53;;;3.10;97.60;;;;;;5086511;28;20180;-69
2022/03/06 07:54:17;;;;;;;10.23;7.40;;;3.10;97.50;;;;;;5082029;28;20183;-71
2022/03/06 07:56:45;;;;;;;9.23;6.90;;;3.20;98.10;;;;;;5078043;28;20231;-70
2022/03/06 07:59:11;;;;;;;9.30;5.97;;;3.20;97.70;;;;;;5109733;27;20216;-69
2022/03/06 08:01:39;;;;;;;9.30;6.40;;;3.30;98.20;;;;;;5063961;28;20213;-70
2022/03/06 08:04:05;;;;;;;10.97;7.47;;;3.30;98.10;;;;;;5076169;28;20199;-70
2022/03/06 08:06:33;;;;;;;9.63;6.90;;;3.40;98.30;;;;;;5106073;27;20268;-71
2022/03/06 08:09:02;;;;;;;8.53;6.00;;;3.40;98.50;;;;;;5106057;27;20184;-70
2022/03/06 08:11:28;;;;;;;8.33;6.40;;;3.50;98.50;;;;;;5077992;28;20228;-69
2022/03/06 08:13:54;;;;;;;9.07;6.40;;;3.60;98.50;;;;;;5092740;28;20192;-70
2022/03/06 08:16:20;;;;;;;10.27;6.67;;;3.60;98.60;;;;;;5081096;28;20198;-70
2022/03/06 08:18:46;;;;;;;9.87;7.30;;;3.70;98.60;;;;;;5081381;28;20278;-71
2022/03/06 08:21:14;;;;;;;8.57;6.07;;;3.80;98.60;;;;;;5111812;27;20195;-70
2022/03/06 08:23:41;;;;;;;8.17;6.07;;;3.80;98.40;;;;;;5080248;28;20194;-70
2022/03/06 08:26:07;;;;;;;9.17;6.27;;;3.90;98.50;;;;;;5090940;28;20256;-71
2022/03/06 08:28:33;;;;;;;12.70;8.37;;;4.00;98.50;;;;;;5079436;28;20238;-70
2022/03/06 08:30:58;;;;;;;8.93;6.50;;;4.00;98.70;;;;;;5104661;27;20187;-70
2022/03/06 08:33:26;;;;;;;9.13;6.97;;;4.00;98.40;;;;;;5110493;28;20171;-70
2022/03/06 08:35:54;;;;;;;8.90;6.20;;;4.10;98.30;;;;;;5085707;28;20199;-69
2022/03/06 08:38:20;;;;;;;8.40;6.40;;;4.10;98.10;;;;;;5106422;27;20208;-70
2022/03/06 08:40:45;;;;;;;9.90;6.40;;;4.10;97.90;;;;;;5100141;27;20262;-70
2022/03/06 08:43:13;;;;;;;7.97;6.30;;;4.10;98.30;;;;;;5094672;28;20259;-70
2022/03/06 08:45:39;;;;;;;9.40;6.13;;;4.20;98.10;;;;;;5077959;28;20200;-71
2022/03/06 08:48:07;;;;;;;7.13;5.70;;;4.20;98.10;;;;;;5120800;27;20176;-70
2022/03/06 08:50:35;;;;;;;9.57;6.30;;;4.30;98.10;;;;;;5113915;27;20175;-69
2022/03/06 08:53:02;;;;;;;7.83;6.00;;;4.40;97.90;;;;;;5084255;28;20207;-71
2022/03/06 08:55:30;;;;;;;10.17;6.47;;;4.40;97.70;;;;;;5073571;28;20176;-67
2022/03/06 08:57:58;;;;;;;10.97;7.03;;;4.40;97.60;;;;;;5088474;28;20266;-70
2022/03/06 09:00:27;;;;;;;7.10;5.87;;;4.50;97.80;;;;;;5086862;28;20180;-70
2022/03/06 09:02:52;;;;;;;8.93;6.73;;;4.50;97.40;;;;;;5068916;28;20184;-70
2022/03/06 09:05:20;;;;;;;10.17;6.47;;;4.40;97.40;;;;;;5079679;28;20205;-67
2022/03/06 09:07:47;;;;;;;8.80;6.30;;;4.50;97.50;;;;;;5113418;27;20176;-70
2022/03/06 09:10:12;;;;;;;9.03;6.00;;;4.50;97.50;;;;;;5102970;27;20263;-70
2022/03/06 09:12:39;;;;;;;8.93;6.60;;;4.60;97.60;;;;;;5094527;28;20236;-68
2022/03/06 09:15:07;;;;;;;12.00;7.13;;;4.60;97.70;;;;;;5093724;28;20191;-70
2022/03/06 09:17:35;;;;;;;9.80;7.13;;;4.70;97.80;;;;;;5091388;28;20194;-70
2022/03/06 09:20:02;;;;;;;10.77;6.90;;;4.80;97.90;;;;;;5090584;28;20210;-70
2022/03/06 09:22:27;;;;;;;9.23;6.60;;;4.90;98.20;;;;;;5095442;28;20211;-70
2022/03/06 09:24:53;;;;;;;8.87;6.40;;;5.00;98.10;;;;;;5078963;28;20176;-71
2022/03/06 09:27:18;;;;;;;9.87;6.50;;;5.10;98.20;;;;;;5078812;28;20227;-68
2022/03/06 09:29:46;;;;;;;9.03;6.73;;;5.20;98.10;;;;;;5111964;28;20190;-70
2022/03/06 09:32:14;;;;;;;9.90;6.73;;;5.30;98.10;;;;;;5112732;28;20184;-70
2022/03/06 09:34:40;;;;;;;8.93;6.70;;;5.50;98.10;;;;;;5076172;28;20235;-70
2022/03/06 09:37:10;;;;;;;9.57;6.97;;;5.60;98.00;;;;;;5078410;28;20215;-70
2022/03/06 09:39:36;;;;;;;10.00;6.83;;;5.70;98.00;;;;;;5113982;27;20198;-70
2022/03/06 09:42:04;;;;;;;9.57;7.17;;;6.00;98.10;;;;;;5078113;28;20310;-69
2022/03/06 09:44:36;;;;;;;8.83;6.60;;;6.60;97.60;;;;;;5070973;28;20176;-70
2022/03/06 09:47:04;;;;;;;10.57;7.47;;;7.20;97.10;;;;;;5084026;28;20249;-71
2022/03/06 09:49:32;;;;;;;9.40;6.83;;;7.90;96.20;;;;;;5116601;28;20195;-70
2022/03/06 09:52:01;;;;;;;7.83;6.27;;;8.50;95.70;;;;;;5094664;28;20175;-68
2022/03/06 09:54:27;;;;;;;9.70;7.20;;;9.10;94.70;;;;;;5084958;28;20256;-69
2022/03/06 09:56:55;;;;;;;8.60;6.57;;;9.70;93.90;;;;;;5077686;28;20183;-70
2022/03/06 09:59:23;;;;;;;9.33;7.27;;;10.20;91.60;;;;;;5115446;28;20445;-70
2022/03/06 10:01:49;;;;;;;8.53;6.97;;;10.60;90.60;;;;;;5090962;28;20211;-68
2022/03/06 10:04:30;;;;;;;9.37;7.10;;;10.90;89.00;;;;;;5130656;27;20332;-70
2022/03/06 10:07:06;;;;;;;7.90;6.40;;;11.10;85.80;;;;;;5085245;28;20188;-69
2022/03/06 10:09:55;;;;;;;9.17;6.63;;;11.40;85.70;;;;;;5106753;27;20172;-70
2022/03/06 10:12:29;;;;;;;11.43;8.70;;;11.60;87.30;;;;;;5080836;28;20192;-70
2022/03/06 10:15:02;;;;;;;10.47;7.77;;;12.00;85.30;;;;;;5085690;28;20212;-70
2022/03/06 10:17:32;;;;;;;9.67;7.67;;;12.30;83.50;;;;;;5132379;27;20266;-70
2022/03/06 10:20:00;;;;;;;10.53;7.37;;;12.40;78.60;;;;;;5081629;28;20192;-70
2022/03/06 10:22:29;;;;;;;8.73;6.63;;;12.40;78.20;;;;;;5073705;28;20223;-70
2022/03/06 10:25:10;;;;;;;9.60;7.67;;;12.50;79.80;;;;;;5074119;28;20187;-69
2022/03/06 10:27:45;;;;;;;7.68;6.22;;;12.60;74.20;;;;;;5100450;28;20515;-70
2022/03/06 10:30:35;;;;;;;7.07;5.88;;;12.80;76.90;;;;;;5089318;28;20324;-70
2022/03/06 10:33:04;;;;;;;8.50;6.32;;;13.00;76.00;;;;;;5085291;28;20212;-69
2022/03/06 10:35:45;;;;;;;9.43;7.30;;;13.10;76.80;;;;;;5085851;28;20220;-69
2022/03/06 10:38:26;;;;;;;15.18;9.18;;;13.20;73.70;;;;;;5117697;27;20300;-70
2022/03/06 10:40:56;;;;;;;10.88;7.82;;;13.00;74.60;;;;;;5078831;28;20192;-68
2022/03/06 10:43:23;;;;;;;9.90;7.85;;;12.90;73.40;;;;;;5078938;28;20237;-70
2022/03/06 10:45:50;;;;;;;8.85;6.85;;;12.70;71.60;;;;;;5091257;28;20186;-69
2022/03/06 10:48:19;;;;;;;8.10;6.10;;;12.40;74.10;;;;;;5084953;28;20187;-70
2022/03/06 10:50:47;;;;;;;8.38;6.32;;;12.10;74.70;;;;;;5098642;28;20175;-69
2022/03/06 10:53:22;;;;;;;7.43;5.82;;;11.90;74.30;;;;;;5080028;28;20176;-67
2022/03/06 10:55:49;;;;;;;8.55;6.88;;;11.70;74.10;;;;;;5081503;28;20278;-70
2022/03/06 10:58:14;;;;;;;9.60;6.57;;;11.60;74.80;;;;;;5082561;28;20263;-70
2022/03/06 11:00:43;;;;;;;8.55;6.50;;;11.60;73.90;;;;;;5095849;28;20208;-70
2022/03/06 11:03:13;;;;;;;8.85;6.68;;;11.50;72.90;;;;;;5104806;28;20192;-70
2022/03/06 11:05:43;;;;;;;8.32;6.50;;;11.40;73.30;;;;;;5067849;28;20180;-70
2022/03/06 11:08:14;;;;;;;8.40;6.53;;;11.40;73.60;;;;;;5107761;27;20165;-70
2022/03/06 11:10:48;;;;;;;7.85;6.75;;;11.40;73.90;;;;;;5109700;27;20199;-69
2022/03/06 11:13:14;;;;;;;8.90;6.63;;;11.40;72.00;;;;;;5094110;28;20214;-67
2022/03/06 11:15:41;;;;;;;8.83;6.97;;;11.30;72.00;;;;;;5114256;27;20221;-70
2022/03/06 11:18:07;;;;;;;7.23;6.30;;;11.10;69.20;;;;;;5071593;28;20211;-69
2022/03/06 11:20:34;;;;;;;7.87;6.17;;;11.00;70.60;;;;;;5111938;27;20175;-70
2022/03/06 11:23:34;;;;;;;7.90;6.23;;;10.80;68.90;;;;;;5095948;28;20283;-69
2022/03/06 11:26:09;;;;;;;8.57;6.60;;;10.70;64.80;;;;;;5061793;28;20192;-70
2022/03/06 11:29:02;;;;;;;9.03;7.13;;;10.50;67.30;;;;;;5108130;28;20180;-70
2022/03/06 11:31:48;;;;;;;8.30;6.40;;;10.40;68.50;;;;;;5113159;28;20175;-70
2022/03/06 11:34:27;;;;;;;9.70;6.33;;;10.40;68.90;;;;;;5118838;27;20190;-70
2022/03/06 11:36:53;;;;;;;8.77;6.82;;;10.50;67.30;;;;;;5109953;27;20294;-70
2022/03/06 11:39:33;;;;;;;7.97;6.28;;;10.60;68.80;;;;;;5118124;27;20411;-69
2022/03/06 11:42:01;;;;;;;9.00;6.87;;;10.70;61.60;;;;;;5094861;28;20200;-70
2022/03/06 11:44:40;;;;;;;8.37;6.30;;;10.70;67.50;;;;;;5128118;27;20199;-70
2022/03/06 11:47:37;;;;;;;8.93;6.83;;;10.80;67.50;;;;;;5087721;28;20254;-70
2022/03/06 11:50:03;;;;;;;8.13;6.32;;;10.90;62.20;;;;;;5119722;27;20196;-71
2022/03/06 11:52:32;;;;;;;9.00;7.35;;;10.90;68.60;;;;;;5115629;27;20225;-70
2022/03/06 11:54:58;;;;;;;9.67;7.27;;;10.90;67.20;;;;;;5087558;28;20204;-69
2022/03/06 11:57:38;;;;;;;9.97;6.67;;;11.00;68.00;;;;;;5073052;28;20212;-70
2022/03/06 12:00:17;;;;;;;8.02;6.32;;;11.00;66.90;;;;;;5100519;27;20188;-70
2022/03/06 12:02:51;;;;;;;8.55;6.57;;;11.00;67.10;;;;;;5104014;27;20353;-69
2022/03/06 12:05:20;;;;;;;9.77;7.30;;;11.00;67.70;;;;;;5103323;27;20164;-70
2022/03/06 12:07:47;;;;;;;14.70;10.03;;;11.00;66.00;;;;;;5081111;28;20176;-70
2022/03/06 12:10:16;;;;;;;9.10;7.43;;;10.90;67.00;;;;;;5082229;28;20227;-69
2022/03/06 12:12:57;;;;;;;10.03;6.83;;;10.90;67.00;;;;;;5092017;28;20179;-70
2022/03/06 12:15:32;;;;;;;8.90;6.67;;;10.80;66.20;;;;;;5089930;28;20175;-70
2022/03/06 12:18:16;;;;;;;9.83;6.67;;;10.70;65.90;;;;;;5088673;28;20204;-71
2022/03/06 12:20:46;;;;;;;8.90;6.40;;;10.50;61.40;;;;;;5073512;28;20176;-70
2022/03/06 12:23:28;;;;;;;9.83;7.60;;;10.30;64.50;;;;;;5074738;28;20213;-71
2022/03/06 12:25:58;;;;;;;9.60;6.80;;;10.20;63.20;;;;;;5086067;28;20175;-70
2022/03/06 12:28:48;;;;;;;8.33;6.53;;;10.20;66.40;;;;;;5094657;28;20184;-71
2022/03/06 12:31:28;;;;;;;8.23;6.40;;;10.40;65.80;;;;;;5114954;27;20192;-70
2022/03/06 12:33:54;;;;;;;8.80;6.80;;;10.60;67.00;;;;;;5060876;28;20180;-70
2022/03/06 12:36:23;;;;;;;7.87;6.40;;;10.70;68.20;;;;;;5094450;28;20275;-71
2022/03/06 12:38:55;;;;;;;8.37;6.20;;;10.90;67.50;;;;;;5086140;28;20187;-72
2022/03/06 12:41:21;;;;;;;9.20;7.77;;;10.90;66.20;;;;;;5077860;28;20208;-70
2022/03/06 12:44:02;;;;;;;10.33;7.47;;;10.90;65.70;;;;;;5098416;27;20194;-71
2022/03/06 12:46:28;;;;;;;9.60;7.43;;;10.80;64.50;;;;;;5075930;28;20230;-71
2022/03/06 12:48:54;;;;;;;10.77;8.40;;;10.70;65.60;;;;;;5073280;28;20184;-71
2022/03/06 12:51:49;;;;;;;9.37;7.57;;;10.70;65.20;;;;;;5104383;27;20180;-70
2022/03/06 12:54:22;;;;;;;8.97;7.10;;;10.80;62.50;;;;;;5072338;28;20188;-67
2022/03/06 12:56:55;;;;;;;10.57;8.20;;;10.90;64.90;;;;;;5112042;28;20256;-71
2022/03/06 12:59:24;;;;;;;9.90;7.10;;;10.90;62.90;;;;;;5093187;28;20191;-71